Time;durP1;ratioP1;P1;durP2;ratioP2;P2;SDS_P1;SDS_P2;PMS_P1;PMS_P2;Temp;Humidity;BMP_temperature;BMP_pressure;BME280_temperature;BME280_humidity;BME280_pressure;Samples;Min_cycle;Max_cycle;Signal;HPM_P1;HPM_P2
2021/10/09 00:00:48;;;;;;;10.50;9.50;;;;;;;;;;5087410;28;20198;-61
2021/10/09 00:03:14;;;;;;;11.33;10.23;;;;;;;;;;5113428;28;20202;-61
2021/10/09 00:05:40;;;;;;;11.10;10.00;;;;;;;;;;5108569;28;20175;-61
2021/10/09 00:08:17;;;;;;;10.80;9.73;;;;;;;;;;5110883;28;20250;-61
2021/10/09 00:10:43;;;;;;;11.50;10.40;;;;;;;;;;5109747;28;20198;-60
2021/10/09 00:13:10;;;;;;;10.97;9.97;;;;;;;;;;5112040;28;20174;-60
2021/10/09 00:15:42;;;;;;;10.50;9.40;;;;;;;;;;5108344;28;20210;-60
2021/10/09 00:18:08;;;;;;;10.57;9.53;;;;;;;;;;5091821;28;20697;-61
2021/10/09 00:20:35;;;;;;;10.40;9.40;;;;;;;;;;5083593;28;20191;-61
2021/10/09 00:23:01;;;;;;;11.73;10.60;;;;;;;;;;5091547;28;20300;-60
2021/10/09 00:25:28;;;;;;;11.47;10.37;;;;;;;;;;5109805;28;20175;-60
2021/10/09 00:27:54;;;;;;;10.90;9.67;;;;;;;;;;5105747;28;20176;-60
2021/10/09 00:30:20;;;;;;;11.37;10.33;;;;;;;;;;5101480;28;20688;-60
2021/10/09 00:32:46;;;;;;;10.63;9.60;;;;;;;;;;5111552;28;20206;-60
2021/10/09 00:35:12;;;;;;;12.53;10.90;;;;;;;;;;5109077;28;20523;-60
2021/10/09 00:37:38;;;;;;;13.17;11.87;;;;;;;;;;5111258;28;20186;-60
2021/10/09 00:40:05;;;;;;;12.10;10.47;;;;;;;;;;5100518;28;20195;-59
2021/10/09 00:42:31;;;;;;;11.90;10.70;;;;;;;;;;5092180;28;20290;-60
2021/10/09 00:44:58;;;;;;;11.80;10.67;;;;;;;;;;5090662;28;20182;-60
2021/10/09 00:47:25;;;;;;;12.13;10.30;;;;;;;;;;5111081;28;20186;-60
2021/10/09 00:49:51;;;;;;;11.20;10.17;;;;;;;;;;5104020;28;20645;-61
2021/10/09 00:52:18;;;;;;;11.70;10.53;;;;;;;;;;5093198;28;20214;-60
2021/10/09 00:54:46;;;;;;;12.03;10.83;;;;;;;;;;5108287;28;20183;-59
2021/10/09 00:57:16;;;;;;;12.97;11.73;;;;;;;;;;5092130;28;20569;-60
2021/10/09 00:59:42;;;;;;;13.13;11.83;;;;;;;;;;5106320;28;20179;-61
2021/10/09 01:02:08;;;;;;;11.73;10.53;;;;;;;;;;5090871;28;20209;-61
2021/10/09 01:04:36;;;;;;;11.20;10.17;;;;;;;;;;5111052;28;20212;-60
2021/10/09 01:07:03;;;;;;;11.47;10.37;;;;;;;;;;5092614;28;20179;-60
2021/10/09 01:09:29;;;;;;;13.50;12.10;;;;;;;;;;5109050;28;20526;-61
2021/10/09 01:11:55;;;;;;;12.70;11.50;;;;;;;;;;5088013;28;20649;-60
2021/10/09 01:14:24;;;;;;;12.33;11.13;;;;;;;;;;5111438;28;20213;-60
2021/10/09 01:16:50;;;;;;;13.70;11.80;;;;;;;;;;5107350;28;20257;-60
2021/10/09 01:19:16;;;;;;;12.33;11.13;;;;;;;;;;5092182;28;20592;-61
2021/10/09 01:21:44;;;;;;;13.30;12.00;;;;;;;;;;5111062;28;20214;-59
2021/10/09 01:24:11;;;;;;;12.70;11.40;;;;;;;;;;5111777;28;20182;-60
2021/10/09 01:26:37;;;;;;;12.57;11.37;;;;;;;;;;5088939;28;20538;-60
2021/10/09 01:29:06;;;;;;;13.23;11.87;;;;;;;;;;5113890;28;20188;-60
2021/10/09 01:31:32;;;;;;;14.23;11.90;;;;;;;;;;5110634;28;20638;-59
2021/10/09 01:33:59;;;;;;;13.13;11.73;;;;;;;;;;5113841;28;20967;-60
2021/10/09 01:36:32;;;;;;;12.83;11.50;;;;;;;;;;5092331;28;20634;-60
2021/10/09 01:38:59;;;;;;;12.67;11.33;;;;;;;;;;5108278;28;20199;-60
2021/10/09 01:41:25;;;;;;;12.43;11.13;;;;;;;;;;5095092;28;20203;-60
2021/10/09 01:43:51;;;;;;;13.33;12.03;;;;;;;;;;5111851;28;20183;-61
2021/10/09 01:46:18;;;;;;;12.63;11.43;;;;;;;;;;5087614;28;20175;-60
2021/10/09 01:48:44;;;;;;;13.50;10.43;;;;;;;;;;5110257;28;20641;-60
2021/10/09 01:51:11;;;;;;;12.00;10.80;;;;;;;;;;5105373;28;20187;-60
2021/10/09 01:53:37;;;;;;;12.53;11.23;;;;;;;;;;5107936;28;20175;-60
2021/10/09 01:56:04;;;;;;;12.93;11.60;;;;;;;;;;5106236;28;20717;-60
2021/10/09 01:58:30;;;;;;;12.97;11.67;;;;;;;;;;5105446;28;20210;-61
2021/10/09 02:00:56;;;;;;;12.83;11.53;;;;;;;;;;5102469;28;20294;-61
2021/10/09 02:03:22;;;;;;;15.47;13.90;;;;;;;;;;5108904;28;20183;-60
2021/10/09 02:05:49;;;;;;;14.13;12.63;;;;;;;;;;5089253;28;20650;-60
2021/10/09 02:08:15;;;;;;;13.83;12.43;;;;;;;;;;5109820;28;20575;-61
2021/10/09 02:10:50;;;;;;;13.30;11.77;;;;;;;;;;5090776;28;20228;-60
2021/10/09 02:13:22;;;;;;;13.27;11.87;;;;;;;;;;5109649;28;20179;-60
2021/10/09 02:16:05;;;;;;;12.87;11.63;;;;;;;;;;5083109;28;20226;-60
2021/10/09 02:18:39;;;;;;;12.90;11.60;;;;;;;;;;5104071;28;20171;-59
2021/10/09 02:26:32;;;;;;;13.27;11.87;;;;;;;;;;5106069;28;20342;-60
2021/10/09 02:28:58;;;;;;;14.23;12.73;;;;;;;;;;5107724;28;20175;-60
2021/10/09 02:31:24;;;;;;;14.57;12.37;;;;;;;;;;5107320;28;20190;-60
2021/10/09 02:33:50;;;;;;;13.33;11.93;;;;;;;;;;5108738;28;20211;-59
2021/10/09 02:36:17;;;;;;;13.20;11.80;;;;;;;;;;5104624;28;20182;-59
2021/10/09 02:38:45;;;;;;;14.73;12.03;;;;;;;;;;5107406;28;20182;-59
2021/10/09 02:41:11;;;;;;;12.57;11.37;;;;;;;;;;5104803;28;20659;-60
2021/10/09 02:43:37;;;;;;;13.37;11.63;;;;;;;;;;5109398;28;20175;-59
2021/10/09 02:46:03;;;;;;;14.50;13.00;;;;;;;;;;5103457;28;20183;-60
2021/10/09 02:48:29;;;;;;;12.37;11.07;;;;;;;;;;5104931;28;20171;-60
2021/10/09 02:50:55;;;;;;;13.30;12.00;;;;;;;;;;5108490;28;20197;-60
2021/10/09 02:53:21;;;;;;;13.13;11.83;;;;;;;;;;5108665;28;20190;-59
2021/10/09 02:55:47;;;;;;;14.53;12.97;;;;;;;;;;5106693;28;20183;-60
2021/10/09 02:58:13;;;;;;;13.87;11.97;;;;;;;;;;5081631;28;20649;-60
2021/10/09 03:00:39;;;;;;;13.40;11.73;;;;;;;;;;5105532;28;20183;-59
2021/10/09 03:03:05;;;;;;;14.93;12.10;;;;;;;;;;5109416;28;20240;-60
2021/10/09 03:05:31;;;;;;;14.40;12.27;;;;;;;;;;5105582;28;20178;-59
2021/10/09 03:07:57;;;;;;;13.30;11.90;;;;;;;;;;5101620;28;20226;-59
2021/10/09 03:10:23;;;;;;;13.63;12.33;;;;;;;;;;5085531;28;20186;-60
2021/10/09 03:12:50;;;;;;;14.87;11.53;;;;;;;;;;5107740;28;20179;-59
2021/10/09 03:15:16;;;;;;;15.43;12.07;;;;;;;;;;5087072;28;20821;-60
2021/10/09 03:17:42;;;;;;;13.70;12.27;;;;;;;;;;5107291;28;20305;-59
2021/10/09 03:20:10;;;;;;;13.07;11.63;;;;;;;;;;5102333;28;20187;-59
2021/10/09 03:22:36;;;;;;;13.73;12.33;;;;;;;;;;5108883;28;20198;-59
2021/10/09 03:25:02;;;;;;;13.87;12.43;;;;;;;;;;5106106;28;20210;-59
2021/10/09 03:27:28;;;;;;;14.20;12.07;;;;;;;;;;5105856;28;20175;-59
2021/10/09 03:29:54;;;;;;;13.80;12.43;;;;;;;;;;5105983;28;20204;-59
2021/10/09 03:32:20;;;;;;;13.27;11.97;;;;;;;;;;5106869;28;20252;-59
2021/10/09 03:34:46;;;;;;;16.90;13.17;;;;;;;;;;5084770;28;20187;-59
2021/10/09 03:37:12;;;;;;;14.17;12.50;;;;;;;;;;5106611;28;20234;-59
2021/10/09 03:39:41;;;;;;;14.13;12.73;;;;;;;;;;5103603;28;20219;-59
2021/10/09 03:42:35;;;;;;;13.93;12.60;;;;;;;;;;5101065;28;20607;-59
2021/10/09 03:44:58;;;;;;;13.43;12.17;;;;;;;;;;5103840;28;20192;-59
2021/10/09 03:52:41;;;;;;;14.10;12.60;;;;;;;;;;5108479;28;20875;-60
2021/10/09 03:55:09;;;;;;;14.03;12.60;;;;;;;;;;5106797;28;20266;-59
2021/10/09 03:57:36;;;;;;;13.00;11.70;;;;;;;;;;5106683;28;20202;-60
2021/10/09 04:00:04;;;;;;;13.67;12.27;;;;;;;;;;5102442;28;20183;-60
2021/10/09 04:02:30;;;;;;;12.53;11.30;;;;;;;;;;5107451;28;20592;-60
2021/10/09 04:04:56;;;;;;;13.37;12.07;;;;;;;;;;5107958;28;20178;-60
2021/10/09 04:07:22;;;;;;;13.67;12.37;;;;;;;;;;5098627;28;20652;-60
2021/10/09 04:09:48;;;;;;;13.27;12.03;;;;;;;;;;5069629;28;20230;-59
2021/10/09 04:12:14;;;;;;;13.80;12.37;;;;;;;;;;5101962;28;20561;-60
2021/10/09 04:14:40;;;;;;;14.00;12.10;;;;;;;;;;5099581;28;20306;-59
2021/10/09 04:17:07;;;;;;;13.17;11.77;;;;;;;;;;5104524;28;20183;-60
2021/10/09 04:19:33;;;;;;;15.87;12.17;;;;;;;;;;5100103;28;20248;-60
2021/10/09 04:21:59;;;;;;;14.10;12.60;;;;;;;;;;5099249;28;20608;-59
2021/10/09 04:24:25;;;;;;;14.30;13.00;;;;;;;;;;5103547;28;20670;-60
2021/10/09 04:26:52;;;;;;;14.77;13.07;;;;;;;;;;5108165;28;20179;-59
2021/10/09 04:29:18;;;;;;;14.73;13.23;;;;;;;;;;5104839;28;20176;-60
2021/10/09 04:31:44;;;;;;;15.00;13.50;;;;;;;;;;5100252;28;20731;-60
2021/10/09 04:34:10;;;;;;;13.23;11.93;;;;;;;;;;5111531;28;20175;-60
2021/10/09 04:36:36;;;;;;;13.40;12.10;;;;;;;;;;5106856;28;20182;-60
2021/10/09 04:39:03;;;;;;;13.13;11.80;;;;;;;;;;5111118;28;20228;-59
2021/10/09 04:41:29;;;;;;;14.63;13.03;;;;;;;;;;5105693;28;20672;-60
2021/10/09 04:43:55;;;;;;;14.97;11.90;;;;;;;;;;5109939;28;20231;-59
2021/10/09 04:46:21;;;;;;;16.83;15.23;;;;;;;;;;5091237;28;20259;-60
2021/10/09 04:48:47;;;;;;;13.90;12.50;;;;;;;;;;5110361;28;20179;-59
2021/10/09 04:51:13;;;;;;;12.97;11.67;;;;;;;;;;5106439;28;20191;-60
2021/10/09 04:53:39;;;;;;;12.77;11.47;;;;;;;;;;5092417;28;20320;-59
2021/10/09 04:56:05;;;;;;;13.50;12.13;;;;;;;;;;5106988;28;20286;-60
2021/10/09 04:58:31;;;;;;;14.70;12.90;;;;;;;;;;5111062;28;20713;-59
2021/10/09 05:00:57;;;;;;;14.10;12.43;;;;;;;;;;5106906;28;20199;-59
2021/10/09 05:03:23;;;;;;;13.10;11.70;;;;;;;;;;5110782;28;20171;-60
2021/10/09 05:05:49;;;;;;;13.63;12.23;;;;;;;;;;5089241;28;20188;-60
2021/10/09 05:08:15;;;;;;;13.97;12.63;;;;;;;;;;5110150;28;20232;-59
2021/10/09 05:10:43;;;;;;;14.67;13.00;;;;;;;;;;5104368;28;20171;-60
2021/10/09 05:13:09;;;;;;;14.03;12.57;;;;;;;;;;5104894;28;20179;-60
2021/10/09 05:15:39;;;;;;;14.03;12.63;;;;;;;;;;5083730;28;20221;-60
2021/10/09 05:18:05;;;;;;;14.00;12.60;;;;;;;;;;5102178;28;20618;-60
2021/10/09 05:20:31;;;;;;;16.70;12.70;;;;;;;;;;5106265;28;20176;-59
2021/10/09 05:22:57;;;;;;;13.50;12.07;;;;;;;;;;5110141;28;20175;-60
2021/10/09 05:25:23;;;;;;;16.27;13.47;;;;;;;;;;5088258;28;20191;-60
2021/10/09 05:28:06;;;;;;;15.77;12.40;;;;;;;;;;5110699;28;20178;-59
2021/10/09 05:30:33;;;;;;;13.90;12.47;;;;;;;;;;5103211;28;21157;-59
2021/10/09 05:33:12;;;;;;;13.60;12.20;;;;;;;;;;5110842;28;20198;-59
2021/10/09 05:35:39;;;;;;;14.43;12.93;;;;;;;;;;5098379;28;20658;-60
2021/10/09 05:38:05;;;;;;;14.63;13.13;;;;;;;;;;5105980;28;20644;-59
2021/10/09 05:40:31;;;;;;;15.27;13.03;;;;;;;;;;5106549;28;20189;-60
2021/10/09 05:42:57;;;;;;;14.70;13.10;;;;;;;;;;5108266;28;20652;-60
2021/10/09 05:45:23;;;;;;;14.27;12.63;;;;;;;;;;5110362;28;20187;-59
2021/10/09 05:47:51;;;;;;;14.47;12.97;;;;;;;;;;5110232;28;20179;-59
2021/10/09 05:50:18;;;;;;;14.63;13.07;;;;;;;;;;5099808;28;20189;-59
2021/10/09 05:52:54;;;;;;;14.60;11.57;;;;;;;;;;5101427;28;20190;-59
2021/10/09 05:55:25;;;;;;;15.33;13.43;;;;;;;;;;5086658;28;20179;-59
2021/10/09 05:58:12;;;;;;;15.20;13.07;;;;;;;;;;5108318;28;20760;-59
2021/10/09 07:00:24;;;;;;;16.77;14.17;;;;;;;;;;5101067;28;20215;-59
2021/10/09 07:02:50;;;;;;;17.67;14.20;;;;;;;;;;5103116;28;20207;-59
2021/10/09 07:05:17;;;;;;;15.63;13.83;;;;;;;;;;5102665;28;20179;-59
2021/10/09 07:07:47;;;;;;;17.73;14.53;;;;;;;;;;5102855;28;20704;-59
2021/10/09 07:10:13;;;;;;;16.23;13.57;;;;;;;;;;5100058;28;20183;-60
2021/10/09 07:12:39;;;;;;;16.80;13.90;;;;;;;;;;5102015;28;20226;-59
2021/10/09 07:15:06;;;;;;;16.13;14.27;;;;;;;;;;5107182;28;20791;-59
2021/10/09 07:17:32;;;;;;;16.53;13.70;;;;;;;;;;5106577;28;20179;-59
2021/10/09 07:19:58;;;;;;;20.60;14.50;;;;;;;;;;5104452;28;20182;-60
2021/10/09 07:22:24;;;;;;;21.80;18.20;;;;;;;;;;5101549;28;20206;-60
2021/10/09 07:24:51;;;;;;;29.27;20.90;;;;;;;;;;5103232;28;20622;-60
2021/10/09 07:27:17;;;;;;;28.10;21.80;;;;;;;;;;5101058;28;20186;-60
2021/10/09 07:29:43;;;;;;;28.30;22.20;;;;;;;;;;5100429;28;20194;-60
2021/10/09 07:32:09;;;;;;;26.57;21.77;;;;;;;;;;5081141;28;20195;-60
2021/10/09 07:34:35;;;;;;;29.13;23.67;;;;;;;;;;5102468;28;20560;-59
2021/10/09 07:37:01;;;;;;;28.93;22.53;;;;;;;;;;5102374;28;20182;-58
2021/10/09 07:39:27;;;;;;;32.93;22.60;;;;;;;;;;5103680;28;20580;-61
2021/10/09 07:41:54;;;;;;;28.53;21.83;;;;;;;;;;5082485;28;20198;-62
2021/10/09 07:44:22;;;;;;;31.23;23.77;;;;;;;;;;5102165;28;20637;-60
2021/10/09 07:46:48;;;;;;;26.73;20.73;;;;;;;;;;5081796;28;20175;-60
2021/10/09 07:49:14;;;;;;;30.63;21.40;;;;;;;;;;5101991;28;20195;-60
2021/10/09 07:51:40;;;;;;;30.87;22.47;;;;;;;;;;5100010;28;20247;-61
2021/10/09 07:54:06;;;;;;;30.13;22.23;;;;;;;;;;5087844;28;20371;-60
2021/10/09 07:56:32;;;;;;;28.37;21.70;;;;;;;;;;5088794;28;20179;-60
2021/10/09 07:58:58;;;;;;;26.83;21.17;;;;;;;;;;5100314;28;20239;-60
2021/10/09 08:01:24;;;;;;;35.70;22.17;;;;;;;;;;5099121;28;20577;-60
2021/10/09 08:03:51;;;;;;;28.77;21.90;;;;;;;;;;5104607;28;20181;-60
2021/10/09 08:06:17;;;;;;;26.83;21.13;;;;;;;;;;5102242;28;20706;-60
2021/10/09 08:08:44;;;;;;;30.70;21.67;;;;;;;;;;5111666;28;20190;-60
2021/10/09 08:11:10;;;;;;;28.63;21.20;;;;;;;;;;5084913;27;21294;-60
2021/10/09 08:13:36;;;;;;;26.97;21.27;;;;;;;;;;5106681;28;20384;-60
2021/10/09 08:16:04;;;;;;;23.93;19.30;;;;;;;;;;5099673;28;20273;-59
2021/10/09 08:18:30;;;;;;;29.93;19.60;;;;;;;;;;5098795;28;20172;-60
2021/10/09 08:21:02;;;;;;;23.33;17.47;;;;;;;;;;5101236;28;20202;-59
2021/10/09 08:23:33;;;;;;;22.90;17.00;;;;;;;;;;5110668;28;20205;-60
2021/10/09 08:26:41;;;;;;;21.00;16.50;;;;;;;;;;5109553;28;20163;-59
2021/10/09 08:39:41;;;;;;;19.80;17.37;;;;;;;;;;5098964;28;20199;-59
2021/10/09 08:42:08;;;;;;;23.03;18.00;;;;;;;;;;5107643;28;20211;-60
2021/10/09 08:44:34;;;;;;;23.73;18.27;;;;;;;;;;5097954;28;20611;-60
2021/10/09 08:47:00;;;;;;;29.53;17.83;;;;;;;;;;5104009;28;20178;-60
2021/10/09 08:49:26;;;;;;;18.37;15.53;;;;;;;;;;5103984;28;20186;-60
2021/10/09 08:51:53;;;;;;;21.30;16.40;;;;;;;;;;5083261;28;20187;-60
2021/10/09 08:54:20;;;;;;;24.00;17.30;;;;;;;;;;5112186;28;20191;-60
2021/10/09 08:56:48;;;;;;;18.30;15.57;;;;;;;;;;5110746;28;20638;-59
2021/10/09 08:59:21;;;;;;;28.73;18.20;;;;;;;;;;5111025;28;20181;-60
2021/10/09 09:02:01;;;;;;;21.40;16.63;;;;;;;;;;5083686;28;20198;-60
2021/10/09 09:26:24;;;;;;;17.83;15.10;;;;;;;;;;5110285;28;20813;-60
2021/10/09 09:37:07;;;;;;;19.67;15.07;;;;;;;;;;5091195;28;20234;-60
2021/10/09 09:39:38;;;;;;;17.13;13.87;;;;;;;;;;5093149;28;20206;-60
2021/10/09 09:42:04;;;;;;;16.87;13.40;;;;;;;;;;5091587;28;20202;-60
2021/10/09 09:44:30;;;;;;;20.13;14.47;;;;;;;;;;5109328;28;20163;-60
2021/10/09 09:47:07;;;;;;;20.40;14.90;;;;;;;;;;5090984;28;20168;-60
2021/10/09 09:49:36;;;;;;;20.50;14.40;;;;;;;;;;5075006;28;20175;-60
2021/10/09 09:52:02;;;;;;;15.10;12.93;;;;;;;;;;5111150;28;20201;-60
2021/10/09 09:54:29;;;;;;;16.07;14.37;;;;;;;;;;5109709;28;20614;-60
2021/10/09 09:56:59;;;;;;;16.50;13.47;;;;;;;;;;5071670;28;20593;-60
2021/10/09 09:59:29;;;;;;;15.13;13.57;;;;;;;;;;5073860;28;20495;-60
2021/10/09 10:01:55;;;;;;;17.80;12.77;;;;;;;;;;5111089;28;20191;-60
2021/10/09 10:04:21;;;;;;;14.63;13.20;;;;;;;;;;5110366;28;20220;-60
2021/10/09 10:06:48;;;;;;;17.63;13.43;;;;;;;;;;5072427;28;20183;-60
2021/10/09 10:09:14;;;;;;;16.93;13.73;;;;;;;;;;5091064;28;20172;-60
2021/10/09 10:11:41;;;;;;;16.13;13.67;;;;;;;;;;5071181;28;20266;-60
2021/10/09 10:14:07;;;;;;;17.20;13.27;;;;;;;;;;5072329;28;20677;-60
2021/10/09 10:16:35;;;;;;;14.90;13.30;;;;;;;;;;5109540;28;20175;-60
2021/10/09 10:19:01;;;;;;;16.20;13.37;;;;;;;;;;5111276;28;20187;-60
2021/10/09 10:21:33;;;;;;;15.90;13.83;;;;;;;;;;5091770;28;20602;-60
2021/10/09 10:23:59;;;;;;;14.83;13.23;;;;;;;;;;5089782;28;20186;-59
2021/10/09 10:26:29;;;;;;;14.13;12.63;;;;;;;;;;5088522;28;20472;-60
2021/10/09 10:28:58;;;;;;;14.97;13.30;;;;;;;;;;5110920;28;20187;-60
2021/10/09 10:31:25;;;;;;;19.20;14.43;;;;;;;;;;5074009;28;20191;-60
2021/10/09 10:34:00;;;;;;;15.37;12.80;;;;;;;;;;5090450;28;20187;-60
2021/10/09 10:36:35;;;;;;;16.40;14.17;;;;;;;;;;5107831;28;20261;-60
2021/10/09 10:39:05;;;;;;;18.17;14.27;;;;;;;;;;5110594;28;20641;-60
2021/10/09 10:41:41;;;;;;;17.20;13.20;;;;;;;;;;5090056;28;20207;-60
2021/10/09 10:44:09;;;;;;;14.83;12.93;;;;;;;;;;5090387;28;20616;-60
2021/10/09 10:46:47;;;;;;;19.50;12.53;;;;;;;;;;5109129;28;20637;-60
2021/10/09 10:49:25;;;;;;;17.07;13.73;;;;;;;;;;5092313;28;20167;-60
2021/10/09 10:54:35;;;;;;;14.97;12.70;;;;;;;;;;5110143;28;20216;-60
2021/10/09 10:57:01;;;;;;;15.80;13.33;;;;;;;;;;5090768;28;20307;-60
2021/10/09 10:59:34;;;;;;;19.57;13.17;;;;;;;;;;5089614;28;20625;-60
2021/10/09 11:02:26;;;;;;;15.27;13.63;;;;;;;;;;5089811;28;20231;-60
2021/10/09 11:04:52;;;;;;;15.27;12.43;;;;;;;;;;5084734;28;20191;-60
2021/10/09 11:07:19;;;;;;;17.03;13.47;;;;;;;;;;5089182;28;20261;-60
2021/10/09 11:09:45;;;;;;;14.47;12.77;;;;;;;;;;5092622;28;20179;-60
2021/10/09 11:12:22;;;;;;;15.20;13.57;;;;;;;;;;5107939;28;20181;-60
2021/10/09 11:14:52;;;;;;;17.67;11.93;;;;;;;;;;5105049;28;20218;-60
2021/10/09 11:17:18;;;;;;;14.20;12.57;;;;;;;;;;5089311;28;20229;-60
2021/10/09 11:19:45;;;;;;;16.83;13.17;;;;;;;;;;5075147;28;20240;-60
2021/10/09 11:22:12;;;;;;;16.20;13.17;;;;;;;;;;5091488;28;20194;-60
2021/10/09 11:24:48;;;;;;;15.00;13.40;;;;;;;;;;5088519;28;20203;-60
2021/10/09 11:27:31;;;;;;;14.03;11.57;;;;;;;;;;5087145;28;20251;-60
2021/10/09 11:30:05;;;;;;;16.83;13.00;;;;;;;;;;5075489;28;20174;-60
2021/10/09 11:32:35;;;;;;;17.40;12.93;;;;;;;;;;5107890;28;20199;-60
2021/10/09 11:35:05;;;;;;;13.70;12.30;;;;;;;;;;5101975;28;20221;-60
2021/10/09 11:37:32;;;;;;;12.83;11.53;;;;;;;;;;5090007;28;20175;-60
2021/10/09 11:40:01;;;;;;;14.40;12.23;;;;;;;;;;5077741;28;20211;-60
2021/10/09 11:42:42;;;;;;;12.97;11.53;;;;;;;;;;5109478;28;20191;-60
2021/10/09 11:56:03;;;;;;;14.40;12.50;;;;;;;;;;5094312;28;20201;-60
2021/10/09 11:58:29;;;;;;;13.13;11.57;;;;;;;;;;5089319;28;20187;-60
2021/10/09 12:00:55;;;;;;;13.63;12.23;;;;;;;;;;5102558;28;20221;-60
2021/10/09 12:03:30;;;;;;;16.17;13.40;;;;;;;;;;5109645;28;20224;-60
2021/10/09 12:06:08;;;;;;;19.73;12.67;;;;;;;;;;5076880;28;20661;-60
2021/10/09 12:08:41;;;;;;;15.33;12.93;;;;;;;;;;5089203;28;20548;-60
2021/10/09 12:11:08;;;;;;;15.87;12.07;;;;;;;;;;5103326;28;20262;-61
2021/10/09 12:13:44;;;;;;;15.53;13.27;;;;;;;;;;5074443;28;20186;-61
2021/10/09 12:16:10;;;;;;;14.03;12.53;;;;;;;;;;5092884;28;20306;-60
2021/10/09 12:18:45;;;;;;;14.90;13.27;;;;;;;;;;5070782;28;20179;-60
2021/10/09 12:21:11;;;;;;;16.37;13.77;;;;;;;;;;5104679;28;20191;-60
2021/10/09 12:23:37;;;;;;;14.10;11.80;;;;;;;;;;5097984;28;20171;-60
2021/10/09 12:26:14;;;;;;;15.13;11.27;;;;;;;;;;5069403;28;20767;-61
2021/10/09 12:29:00;;;;;;;17.97;12.33;;;;;;;;;;5088926;28;20541;-61
2021/10/09 12:31:27;;;;;;;15.67;12.50;;;;;;;;;;5055607;28;20430;-61
2021/10/09 12:33:53;;;;;;;13.70;12.23;;;;;;;;;;5088657;28;20232;-61
2021/10/09 12:36:34;;;;;;;14.23;12.77;;;;;;;;;;5070098;28;20257;-61
2021/10/09 12:39:19;;;;;;;16.77;12.20;;;;;;;;;;5088805;28;20619;-61
2021/10/09 12:41:45;;;;;;;12.97;11.40;;;;;;;;;;5087692;28;20214;-61
2021/10/09 12:44:11;;;;;;;13.23;11.60;;;;;;;;;;5070641;28;20168;-61
2021/10/09 12:46:37;;;;;;;14.93;12.67;;;;;;;;;;5109838;28;20184;-61
2021/10/09 12:49:03;;;;;;;15.30;12.87;;;;;;;;;;5111646;28;20168;-60
2021/10/09 12:51:29;;;;;;;13.70;11.50;;;;;;;;;;5091868;28;20703;-60
2021/10/09 12:53:59;;;;;;;14.10;12.37;;;;;;;;;;5090862;28;20181;-61
2021/10/09 12:56:25;;;;;;;13.70;12.03;;;;;;;;;;5107223;28;20186;-61
2021/10/09 12:58:51;;;;;;;13.10;11.57;;;;;;;;;;5111051;28;20210;-61
2021/10/09 13:01:17;;;;;;;17.73;12.00;;;;;;;;;;5075491;28;20205;-61
2021/10/09 13:03:43;;;;;;;14.23;11.77;;;;;;;;;;5073601;28;20197;-61
2021/10/09 13:06:09;;;;;;;13.60;12.20;;;;;;;;;;5088735;28;20179;-61
2021/10/09 13:08:35;;;;;;;12.37;11.07;;;;;;;;;;5092570;28;20164;-61
2021/10/09 13:11:01;;;;;;;13.67;12.20;;;;;;;;;;5094978;28;20187;-61
2021/10/09 13:13:27;;;;;;;14.27;11.67;;;;;;;;;;5090476;28;20234;-61
2021/10/09 13:15:53;;;;;;;12.50;10.60;;;;;;;;;;5102791;28;20215;-61
2021/10/09 13:18:19;;;;;;;15.27;12.27;;;;;;;;;;5092923;28;20195;-61
2021/10/09 13:20:45;;;;;;;15.00;12.60;;;;;;;;;;5080177;28;20181;-61
2021/10/09 13:23:11;;;;;;;14.17;11.53;;;;;;;;;;5091976;28;20216;-61
2021/10/09 13:25:37;;;;;;;15.47;10.50;;;;;;;;;;5103466;28;20178;-61
2021/10/09 13:28:06;;;;;;;12.57;10.80;;;;;;;;;;5092881;28;20542;-61
2021/10/09 13:30:32;;;;;;;14.47;11.07;;;;;;;;;;5100674;28;20260;-61
2021/10/09 13:32:58;;;;;;;13.40;11.30;;;;;;;;;;5072031;28;20211;-61
2021/10/09 13:35:24;;;;;;;14.57;11.93;;;;;;;;;;5099228;28;20183;-61
2021/10/09 13:37:52;;;;;;;13.70;11.13;;;;;;;;;;5092307;28;20649;-61
2021/10/09 13:40:18;;;;;;;12.57;10.30;;;;;;;;;;5083618;28;20213;-61
2021/10/09 13:42:44;;;;;;;15.43;11.53;;;;;;;;;;5089381;28;20197;-60
2021/10/09 13:45:10;;;;;;;13.90;10.40;;;;;;;;;;5096135;28;20321;-60
2021/10/09 13:47:36;;;;;;;14.47;10.97;;;;;;;;;;5079373;28;20623;-61
2021/10/09 13:50:03;;;;;;;14.13;10.63;;;;;;;;;;5085540;28;20257;-62
2021/10/09 13:52:29;;;;;;;17.07;11.20;;;;;;;;;;5072066;28;20332;-61
2021/10/09 13:54:55;;;;;;;12.87;11.57;;;;;;;;;;5076802;28;20222;-61
2021/10/09 13:57:21;;;;;;;12.00;10.77;;;;;;;;;;5109486;28;20206;-61
2021/10/09 13:59:47;;;;;;;17.43;13.17;;;;;;;;;;5086485;28;20227;-62
2021/10/09 14:02:14;;;;;;;14.67;12.10;;;;;;;;;;5072337;28;20230;-61
2021/10/09 14:04:40;;;;;;;11.40;9.97;;;;;;;;;;5093653;28;20172;-62
2021/10/09 14:07:06;;;;;;;13.37;11.47;;;;;;;;;;5092617;28;20186;-62
2021/10/09 14:09:32;;;;;;;12.30;10.03;;;;;;;;;;5090310;28;20181;-61
2021/10/09 14:12:02;;;;;;;11.33;10.13;;;;;;;;;;5071080;28;20180;-61
2021/10/09 14:14:29;;;;;;;10.43;9.43;;;;;;;;;;5089980;28;20216;-61
2021/10/09 14:16:55;;;;;;;12.67;9.43;;;;;;;;;;5090340;28;20225;-61
2021/10/09 14:19:21;;;;;;;11.70;9.73;;;;;;;;;;5089576;28;20200;-61
2021/10/09 14:21:47;;;;;;;10.80;9.77;;;;;;;;;;5088617;28;20204;-62
2021/10/09 14:24:16;;;;;;;12.30;9.47;;;;;;;;;;5086607;28;20183;-61
2021/10/09 14:26:42;;;;;;;11.10;10.00;;;;;;;;;;5107772;28;20231;-61
2021/10/09 14:29:09;;;;;;;10.17;9.13;;;;;;;;;;5108750;28;20167;-61
2021/10/09 14:31:35;;;;;;;10.37;9.33;;;;;;;;;;5088777;28;20179;-61
2021/10/09 14:34:02;;;;;;;10.40;9.20;;;;;;;;;;5089077;28;20637;-61
2021/10/09 14:36:28;;;;;;;10.87;9.77;;;;;;;;;;5107244;28;20853;-61
2021/10/09 14:38:55;;;;;;;9.93;9.03;;;;;;;;;;5110426;28;20684;-61
2021/10/09 14:41:21;;;;;;;10.87;9.87;;;;;;;;;;5091340;28;20607;-61
2021/10/09 14:43:50;;;;;;;10.67;9.60;;;;;;;;;;5089678;28;20641;-61
2021/10/09 14:49:06;;;;;;;9.77;8.77;;;;;;;;;;5110054;28;20174;-61
2021/10/09 15:18:46;;;;;;;9.67;8.77;;;;;;;;;;5109856;28;20167;-61
2021/10/09 15:21:12;;;;;;;11.80;9.37;;;;;;;;;;5093034;28;20195;-61
2021/10/09 15:23:38;;;;;;;9.40;8.27;;;;;;;;;;5071105;28;20187;-61
2021/10/09 15:26:04;;;;;;;8.83;7.93;;;;;;;;;;5083535;28;20194;-61
2021/10/09 15:28:33;;;;;;;9.20;8.10;;;;;;;;;;5107754;28;20625;-61
2021/10/09 15:30:59;;;;;;;9.60;8.60;;;;;;;;;;5075076;28;20183;-61
2021/10/09 15:33:25;;;;;;;9.57;8.67;;;;;;;;;;5070529;28;20274;-61
2021/10/09 15:35:51;;;;;;;9.70;8.70;;;;;;;;;;5101795;28;20191;-61
2021/10/09 15:38:18;;;;;;;9.50;8.57;;;;;;;;;;5091233;28;20167;-61
2021/10/09 15:40:44;;;;;;;10.47;9.30;;;;;;;;;;5096382;28;20187;-61
2021/10/09 15:43:10;;;;;;;10.77;8.83;;;;;;;;;;5088400;28;20220;-61
2021/10/09 15:45:37;;;;;;;11.93;8.17;;;;;;;;;;5088285;28;20665;-61
2021/10/09 15:48:03;;;;;;;10.87;9.77;;;;;;;;;;5090008;28;20683;-61
2021/10/09 15:50:31;;;;;;;9.97;8.97;;;;;;;;;;5098715;28;20183;-61
2021/10/09 15:52:57;;;;;;;11.00;9.40;;;;;;;;;;5109486;28;20512;-61
2021/10/09 15:55:27;;;;;;;11.30;9.20;;;;;;;;;;5080528;28;20187;-60
2021/10/09 15:57:53;;;;;;;10.57;9.40;;;;;;;;;;5087168;28;20164;-60
2021/10/09 16:00:19;;;;;;;10.20;8.87;;;;;;;;;;5078159;28;20585;-60
2021/10/09 16:02:46;;;;;;;10.93;8.53;;;;;;;;;;5110226;28;20270;-60
2021/10/09 16:05:13;;;;;;;11.73;8.77;;;;;;;;;;5102080;28;20256;-60
2021/10/09 16:07:42;;;;;;;11.30;9.50;;;;;;;;;;5071811;28;20450;-60
2021/10/09 16:10:08;;;;;;;14.83;8.77;;;;;;;;;;5062379;28;20550;-60
2021/10/09 16:12:35;;;;;;;12.23;10.00;;;;;;;;;;5109168;28;20171;-60
2021/10/09 16:15:01;;;;;;;11.13;10.03;;;;;;;;;;5103493;28;20223;-60
2021/10/09 16:17:28;;;;;;;10.17;9.27;;;;;;;;;;5090020;28;20178;-60
2021/10/09 16:19:54;;;;;;;11.40;9.90;;;;;;;;;;5094450;28;20211;-60
2021/10/09 16:22:21;;;;;;;11.50;10.33;;;;;;;;;;5114497;28;20238;-60
2021/10/09 16:24:48;;;;;;;14.37;10.80;;;;;;;;;;5093516;28;20187;-60
2021/10/09 16:27:15;;;;;;;11.13;9.93;;;;;;;;;;5060025;28;20438;-60
2021/10/09 16:29:41;;;;;;;11.23;10.10;;;;;;;;;;5095676;28;20228;-61
2021/10/09 16:32:07;;;;;;;11.23;9.50;;;;;;;;;;5112445;28;20675;-60
2021/10/09 16:34:34;;;;;;;11.57;10.17;;;;;;;;;;5109724;28;20239;-61
2021/10/09 16:37:00;;;;;;;10.50;9.40;;;;;;;;;;5092194;28;20233;-60
2021/10/09 16:39:27;;;;;;;10.53;9.00;;;;;;;;;;5073832;28;20185;-60
2021/10/09 16:41:54;;;;;;;10.37;9.27;;;;;;;;;;5109605;28;20202;-61
2021/10/09 16:44:21;;;;;;;13.30;9.17;;;;;;;;;;5110358;28;20641;-60
2021/10/09 16:46:47;;;;;;;12.57;9.53;;;;;;;;;;5090313;28;20168;-60
2021/10/09 16:49:14;;;;;;;10.07;9.10;;;;;;;;;;5090700;28;20266;-60
2021/10/09 16:51:40;;;;;;;12.97;10.20;;;;;;;;;;5109871;28;20185;-60
2021/10/09 16:54:06;;;;;;;10.63;9.50;;;;;;;;;;5092508;28;20231;-60
2021/10/09 16:56:33;;;;;;;12.07;8.90;;;;;;;;;;5089960;28;20184;-60